Time;durP1;ratioP1;P1;durP2;ratioP2;P2;SDS_P1;SDS_P2;PMS_P1;PMS_P2;Temp;Humidity;BMP_temperature;BMP_pressure;BME280_temperature;BME280_humidity;BME280_pressure;Samples;Min_cycle;Max_cycle;Signal;HPM_P1;HPM_P2
2023/08/07 00:00:45;;;;;;;3.70;1.90;;;;;;;20.55;80.21;97220.84;105394;1253;74416;-20
2023/08/07 00:03:18;;;;;;;3.70;2.10;;;;;;;20.13;81.46;97229.42;105431;1254;75079;-21
2023/08/07 00:05:46;;;;;;;4.60;2.70;;;;;;;19.65;84.14;97234.77;105542;1258;62320;-22
2023/08/07 00:08:14;;;;;;;2.00;1.50;;;;;;;19.72;83.69;97240.50;105328;1253;61087;-22
2023/08/07 00:10:42;;;;;;;5.70;2.10;;;;;;;20.23;83.08;97257.81;105486;1258;75176;-20
2023/08/07 00:13:10;;;;;;;5.60;2.20;;;;;;;20.34;81.35;97257.36;105573;1258;76569;-19
2023/08/07 00:15:38;;;;;;;5.10;2.10;;;;;;;20.20;81.23;97241.53;105597;1253;74075;-21
2023/08/07 00:18:06;;;;;;;2.80;2.00;;;;;;;20.20;81.89;97223.89;105681;1255;61121;-21
2023/08/07 00:20:34;;;;;;;2.70;2.30;;;;;;;20.05;82.13;97216.70;105598;1253;61442;-21
2023/08/07 00:23:02;;;;;;;1.90;1.50;;;;;;;19.86;82.29;97216.95;105667;1258;76535;-21
2023/08/07 00:25:30;;;;;;;2.00;1.60;;;;;;;20.23;82.31;97212.27;105683;1258;74949;-21
2023/08/07 00:27:57;;;;;;;3.30;2.00;;;;;;;20.56;80.02;97212.57;105526;1253;74127;-21
2023/08/07 00:30:25;;;;;;;4.50;2.30;;;;;;;20.48;79.84;97206.00;105522;1254;61140;-21
2023/08/07 00:32:53;;;;;;;7.20;2.30;;;;;;;20.21;80.49;97205.29;105603;1253;62481;-22
2023/08/07 00:35:21;;;;;;;2.90;2.50;;;;;;;19.96;81.21;97195.63;105673;1253;77735;-21
2023/08/07 00:37:49;;;;;;;2.50;1.70;;;;;;;19.75;82.81;97192.71;105668;1258;78466;-21
2023/08/07 00:40:17;;;;;;;5.70;1.50;;;;;;;20.16;82.63;97188.34;105646;1258;73026;-21
2023/08/07 00:42:45;;;;;;;2.80;1.90;;;;;;;20.61;80.75;97194.47;105726;1253;61505;-21
2023/08/07 00:45:14;;;;;;;1.90;1.70;;;;;;;20.59;79.54;97206.86;105607;1253;61421;-21
2023/08/07 00:47:42;;;;;;;3.90;2.10;;;;;;;20.32;79.91;97203.41;105305;1258;76027;-22
2023/08/07 00:50:10;;;;;;;4.00;2.30;;;;;;;19.97;81.28;97196.12;105341;1253;76516;-22
2023/08/07 00:52:38;;;;;;;5.20;1.60;;;;;;;19.71;82.18;97212.28;105623;1254;74091;-22
2023/08/07 00:55:07;;;;;;;4.20;1.70;;;;;;;20.01;82.37;97219.67;105682;1256;63730;-22
2023/08/07 00:57:35;;;;;;;3.80;1.80;;;;;;;20.32;81.34;97227.88;105352;1253;61111;-21
2023/08/07 01:00:03;;;;;;;6.00;2.30;;;;;;;20.31;81.40;97215.02;105666;1258;76330;-22
2023/08/07 01:02:31;;;;;;;3.70;2.70;;;;;;;20.08;82.11;97189.75;105714;1253;77212;-22
2023/08/07 01:04:59;;;;;;;3.00;2.40;;;;;;;19.71;83.62;97194.17;105336;1255;75239;-21
2023/08/07 01:07:27;;;;;;;2.10;1.60;;;;;;;19.43;85.14;97204.41;105381;1254;65671;-22
2023/08/07 01:09:57;;;;;;;5.60;2.20;;;;;;;19.65;85.55;97201.73;105266;1255;63875;-22
2023/08/07 01:12:30;;;;;;;4.90;2.40;;;;;;;19.85;84.11;97189.73;105626;1261;76355;-21
2023/08/07 01:15:14;;;;;;;3.30;2.50;;;;;;;19.72;84.43;97196.51;105616;1253;77888;-22
2023/08/07 01:17:42;;;;;;;7.20;2.60;;;;;;;19.47;85.59;97216.94;105586;1253;74127;-21
2023/08/07 01:20:11;;;;;;;4.00;2.20;;;;;;;19.26;86.72;97222.73;105641;1253;63092;-21
2023/08/07 01:22:39;;;;;;;3.90;2.40;;;;;;;19.51;86.78;97219.11;105636;1253;61145;-21
2023/08/07 01:25:07;;;;;;;3.70;2.30;;;;;;;19.55;86.49;97216.04;105414;1253;75167;-21
2023/08/07 01:27:55;;;;;;;5.50;3.00;;;;;;;19.42;86.95;97216.33;105460;1253;73322;-21
2023/08/07 01:30:29;;;;;;;4.30;2.60;;;;;;;19.22;87.86;97209.08;105451;1256;72768;-22
2023/08/07 01:33:22;;;;;;;2.80;2.10;;;;;;;19.07;89.36;97189.61;105618;1261;61187;-22
2023/08/07 01:35:53;;;;;;;5.20;2.20;;;;;;;19.40;88.75;97163.48;105264;1253;61270;-21
2023/08/07 01:38:23;;;;;;;6.60;2.60;;;;;;;19.52;87.54;97150.34;105154;1262;77973;-22
2023/08/07 01:40:51;;;;;;;3.60;2.60;;;;;;;19.34;88.19;97165.41;105300;1253;76561;-21
2023/08/07 01:43:19;;;;;;;4.20;2.70;;;;;;;19.23;88.58;97182.92;105417;1261;72706;-21
2023/08/07 01:45:47;;;;;;;3.20;1.90;;;;;;;19.05;89.57;97183.17;105639;1256;61869;-22
2023/08/07 01:48:15;;;;;;;4.20;2.10;;;;;;;19.44;89.04;97176.24;105671;1253;61855;-21
2023/08/07 01:50:43;;;;;;;3.20;2.00;;;;;;;19.75;86.36;97170.50;105653;1253;76076;-22
2023/08/07 01:53:11;;;;;;;3.60;2.80;;;;;;;19.65;86.43;97167.10;105630;1260;75752;-21
2023/08/07 01:55:38;;;;;;;5.70;3.10;;;;;;;19.38;87.94;97164.50;105587;1253;74717;-22
2023/08/07 01:58:06;;;;;;;3.20;2.00;;;;;;;19.13;89.55;97156.62;105579;1256;64167;-21
2023/08/07 02:00:34;;;;;;;5.60;2.90;;;;;;;19.42;88.93;97159.36;105597;1258;62561;-21
2023/08/07 02:03:02;;;;;;;6.70;2.70;;;;;;;19.68;87.43;97154.40;105647;1253;75352;-22
2023/08/07 02:05:30;;;;;;;2.50;2.20;;;;;;;19.64;86.84;97147.38;105561;1258;74919;-22
2023/08/07 02:07:58;;;;;;;3.20;2.70;;;;;;;19.47;87.05;97152.29;105496;1260;74989;-21
2023/08/07 02:10:26;;;;;;;2.60;2.20;;;;;;;19.31;87.60;97155.36;105644;1253;63197;-21
2023/08/07 02:12:54;;;;;;;4.00;1.90;;;;;;;19.69;87.13;97144.45;105485;1258;62226;-23
2023/08/07 02:15:22;;;;;;;3.40;2.30;;;;;;;20.05;85.48;97145.80;105354;1253;76137;-22
2023/08/07 02:17:51;;;;;;;5.80;2.70;;;;;;;20.05;84.76;97145.23;105512;1253;75847;-21
2023/08/07 02:20:18;;;;;;;5.60;2.70;;;;;;;19.87;84.85;97143.61;105588;1259;72695;-21
2023/08/07 02:22:46;;;;;;;3.80;2.80;;;;;;;19.63;85.64;97135.66;105639;1259;61717;-22
2023/08/07 02:25:14;;;;;;;3.90;2.00;;;;;;;19.44;87.03;97133.49;105712;1258;62707;-22
2023/08/07 02:27:42;;;;;;;3.80;2.20;;;;;;;19.78;86.64;97134.02;105626;1253;76499;-22
2023/08/07 02:30:11;;;;;;;3.20;2.50;;;;;;;20.19;84.69;97123.14;105637;1253;76761;-21
2023/08/07 02:32:41;;;;;;;3.10;2.80;;;;;;;20.13;83.99;97122.71;105567;1261;75210;-22
2023/08/07 02:35:09;;;;;;;4.00;2.70;;;;;;;19.90;84.85;97122.92;105670;1256;61140;-21
2023/08/07 02:37:36;;;;;;;4.40;2.80;;;;;;;19.65;85.27;97125.20;105634;1261;63845;-21
2023/08/07 02:40:06;;;;;;;2.60;2.00;;;;;;;19.43;86.68;97122.92;105684;1258;72994;-22
2023/08/07 02:42:34;;;;;;;4.70;2.50;;;;;;;19.86;86.28;97123.95;105662;1261;75140;-21
2023/08/07 02:45:03;;;;;;;3.40;2.30;;;;;;;20.27;84.19;97127.48;105584;1261;75457;-21
2023/08/07 02:47:31;;;;;;;3.70;2.40;;;;;;;20.20;83.55;97119.62;105382;1256;62283;-21
2023/08/07 02:49:59;;;;;;;3.50;2.60;;;;;;;19.95;83.98;97123.09;105353;1253;61456;-21
2023/08/07 02:52:27;;;;;;;4.50;3.10;;;;;;;19.67;85.15;97133.52;105388;1258;75323;-22
2023/08/07 02:54:55;;;;;;;3.00;2.00;;;;;;;19.47;85.67;97129.75;105530;1258;74419;-21
2023/08/07 02:57:23;;;;;;;2.60;2.10;;;;;;;19.81;86.02;97134.66;105583;1258;72696;-21
2023/08/07 02:59:50;;;;;;;3.20;2.70;;;;;;;20.12;84.56;97137.59;105570;1256;61083;-21
2023/08/07 03:02:18;;;;;;;4.20;3.20;;;;;;;19.90;84.82;97148.18;105284;1258;62531;-21
2023/08/07 03:04:46;;;;;;;3.80;3.10;;;;;;;19.62;86.03;97155.73;105596;1253;76400;-21
2023/08/07 03:07:14;;;;;;;6.00;2.80;;;;;;;19.26;88.27;97164.17;105667;1253;76805;-21
2023/08/07 03:09:46;;;;;;;10.00;4.10;;;;;;;19.26;89.09;97160.35;105634;1256;74797;-22
2023/08/07 03:12:14;;;;;;;5.60;3.10;;;;;;;19.44;88.60;97145.41;105627;1254;62117;-22
2023/08/07 03:14:41;;;;;;;4.30;2.80;;;;;;;19.46;87.63;97128.79;105526;1253;62510;-21
2023/08/07 03:17:09;;;;;;;3.10;2.80;;;;;;;19.27;88.38;97117.87;105620;1261;72625;-21
2023/08/07 03:19:37;;;;;;;4.00;2.30;;;;;;;19.17;89.60;97122.26;105568;1260;74465;-22
2023/08/07 03:22:05;;;;;;;5.30;2.50;;;;;;;19.56;87.83;97122.13;105606;1256;75004;-21
2023/08/07 03:24:33;;;;;;;3.20;2.80;;;;;;;19.67;86.91;97124.12;105632;1253;61074;-21
2023/08/07 03:27:01;;;;;;;5.20;3.10;;;;;;;19.54;87.30;97120.09;105627;1253;61471;-21
2023/08/07 03:29:29;;;;;;;4.40;3.10;;;;;;;19.33;88.17;97112.70;105643;1253;77711;-21
2023/08/07 03:31:57;;;;;;;3.20;2.30;;;;;;;19.27;89.22;97115.21;105667;1253;75790;-21
2023/08/07 03:34:25;;;;;;;3.70;3.20;;;;;;;19.55;87.66;97119.48;105622;1256;75181;-21
2023/08/07 03:36:53;;;;;;;3.80;3.00;;;;;;;19.66;86.62;97124.72;105293;1262;62036;-21
2023/08/07 03:39:24;;;;;;;4.70;2.90;;;;;;;19.47;87.04;97124.32;105370;1256;61936;-21
2023/08/07 03:41:53;;;;;;;4.30;2.50;;;;;;;19.39;88.01;97126.31;105638;1259;74446;-21
2023/08/07 03:44:21;;;;;;;4.20;2.50;;;;;;;19.71;87.19;97121.66;105593;1253;77419;-21
2023/08/07 03:46:50;;;;;;;3.10;2.50;;;;;;;20.00;85.63;97122.04;105296;1255;75248;-21
2023/08/07 03:49:23;;;;;;;8.20;3.10;;;;;;;19.96;85.18;97125.12;105477;1253;62842;-22
2023/08/07 03:51:51;;;;;;;4.40;2.90;;;;;;;19.79;85.21;97127.28;105686;1256;61459;-21
2023/08/07 03:54:19;;;;;;;2.60;1.70;;;;;;;19.59;86.75;97117.56;105561;1258;75823;-21
2023/08/07 03:56:48;;;;;;;2.80;2.30;;;;;;;19.97;86.02;97103.46;105583;1259;76981;-36
2023/08/07 03:59:18;;;;;;;5.40;2.60;;;;;;;20.37;84.30;97079.55;105638;1254;74099;-23
2023/08/07 04:01:46;;;;;;;3.70;3.10;;;;;;;20.30;83.83;97070.13;105624;1253;62353;-21
2023/08/07 04:04:14;;;;;;;3.30;3.00;;;;;;;19.98;85.09;97063.67;105682;1253;62449;-21
2023/08/07 04:08:38;;;;;;;2.50;2.10;;;;;;;19.62;87.25;97041.60;102674;1293;601071;-22
2023/08/07 04:11:07;;;;;;;2.80;2.50;;;;;;;19.92;86.59;97039.13;104812;1267;62542;-22
2023/08/07 04:13:35;;;;;;;4.00;2.70;;;;;;;20.41;84.75;97046.64;104899;1265;61500;-22
2023/08/07 04:16:04;;;;;;;5.00;3.00;;;;;;;20.45;83.93;97050.54;104890;1267;74747;-22
2023/08/07 04:18:33;;;;;;;3.40;3.10;;;;;;;20.26;84.85;97053.19;104821;1272;76001;-22
2023/08/07 04:21:02;;;;;;;3.20;2.90;;;;;;;20.07;86.30;97059.73;104854;1267;74117;-22
2023/08/07 04:23:31;;;;;;;3.40;2.30;;;;;;;20.11;86.61;97061.75;103216;1268;61647;-22
2023/08/07 04:25:59;;;;;;;5.30;3.30;;;;;;;20.48;84.77;97059.98;105168;1264;61291;-22
2023/08/07 04:28:28;;;;;;;7.10;3.20;;;;;;;20.61;84.05;97063.59;105194;1264;61110;-22
2023/08/07 04:30:56;;;;;;;4.30;3.10;;;;;;;20.41;83.85;97063.02;105201;1266;74444;-22
2023/08/07 04:33:24;;;;;;;7.70;2.70;;;;;;;20.09;85.10;97068.16;105108;1267;75219;-22
2023/08/07 04:35:52;;;;;;;5.10;2.10;;;;;;;19.98;86.75;97084.48;105210;1263;63535;-22
2023/08/07 04:38:20;;;;;;;5.20;2.90;;;;;;;20.28;85.75;97085.75;105181;1263;61039;-22
2023/08/07 04:40:49;;;;;;;3.70;3.20;;;;;;;20.40;84.90;97092.98;105181;1269;75576;-23
2023/08/07 04:50:04;;;;;;;6.40;3.50;;;;;;;20.00;87.80;97098.19;102677;1295;599463;-21
2023/08/07 04:52:31;;;;;;;5.80;3.50;;;;;;;20.13;86.57;97103.37;104850;1272;64040;-21
2023/08/07 04:54:59;;;;;;;4.90;3.60;;;;;;;19.98;86.90;97111.42;104873;1264;62527;-21
2023/08/07 04:57:27;;;;;;;4.00;2.60;;;;;;;19.82;87.69;97113.46;104887;1270;72242;-22
2023/08/07 04:59:55;;;;;;;5.10;2.90;;;;;;;19.72;88.31;97121.44;104892;1267;76822;-21
2023/08/07 05:02:23;;;;;;;6.00;3.60;;;;;;;20.00;87.04;97118.38;104830;1271;72866;-21
2023/08/07 05:04:51;;;;;;;4.90;3.30;;;;;;;19.98;86.05;97120.56;102859;1264;2741918;-21
2023/08/07 05:07:19;;;;;;;5.00;3.30;;;;;;;19.79;86.94;97124.08;105075;1269;61208;-21
2023/08/07 05:09:46;;;;;;;4.40;2.80;;;;;;;19.47;88.26;97120.46;104906;1268;72258;-21
2023/08/07 05:12:15;;;;;;;9.60;3.30;;;;;;;19.71;87.76;97129.48;104948;1261;76482;-21
2023/08/07 05:14:42;;;;;;;4.80;3.10;;;;;;;19.83;86.03;97127.83;105081;1267;74148;-22
2023/08/07 05:17:11;;;;;;;4.20;3.20;;;;;;;19.66;86.60;97133.23;104838;1267;61052;-22
2023/08/07 05:19:39;;;;;;;3.50;2.00;;;;;;;19.54;87.33;97136.05;105052;1268;62488;-22
2023/08/07 05:22:07;;;;;;;2.90;2.50;;;;;;;19.69;86.93;97127.71;105108;1268;76868;-22
2023/08/07 05:24:38;;;;;;;4.20;2.40;;;;;;;19.99;84.95;97131.33;104971;1269;73496;-22
2023/08/07 05:27:10;;;;;;;3.50;2.40;;;;;;;19.96;84.81;97131.99;104739;1264;74032;-22
2023/08/07 05:29:43;;;;;;;2.90;2.40;;;;;;;19.91;85.43;97134.52;104980;1264;61493;-23
2023/08/07 05:32:12;;;;;;;2.30;1.90;;;;;;;19.97;85.98;97137.54;105083;1269;62592;-22
2023/08/07 05:42:22;;;;;;;3.20;2.70;;;;;;;20.21;83.18;97133.34;103010;1286;600159;-22
2023/08/07 05:44:50;;;;;;;2.80;2.30;;;;;;;20.11;84.93;97144.34;104816;1270;61192;-22
2023/08/07 05:47:18;;;;;;;2.70;2.30;;;;;;;20.43;83.57;97147.45;104906;1264;61138;-21
2023/08/07 05:49:46;;;;;;;4.70;2.60;;;;;;;20.51;82.19;97140.45;105180;1260;73577;-22
2023/08/07 05:52:14;;;;;;;3.20;2.70;;;;;;;20.38;82.27;97150.92;104973;1261;75762;-22
2023/08/07 05:54:42;;;;;;;2.50;2.30;;;;;;;20.20;83.52;97150.43;105099;1261;74104;-22
2023/08/07 05:57:10;;;;;;;3.70;1.90;;;;;;;20.24;83.77;97153.20;103102;1261;2882088;-22
2023/08/07 05:59:40;;;;;;;3.30;2.70;;;;;;;20.54;81.84;97155.20;105600;1254;62721;-22
2023/08/07 06:02:10;;;;;;;2.50;2.30;;;;;;;20.44;81.88;97162.20;105533;1254;76435;-23
2023/08/07 06:04:38;;;;;;;2.20;2.00;;;;;;;19.88;81.59;97157.64;105220;1254;76783;-22
2023/08/07 06:07:07;;;;;;;1.80;1.40;;;;;;;19.47;83.16;97164.95;105497;1257;75174;-22
2023/08/07 06:09:35;;;;;;;1.70;1.20;;;;;;;19.25;84.30;97173.42;105666;1253;64119;-22
2023/08/07 06:12:04;;;;;;;1.30;1.20;;;;;;;19.32;82.91;97175.23;105992;1256;62528;-22
2023/08/07 06:14:32;;;;;;;1.60;1.30;;;;;;;19.14;82.93;97174.73;105832;1251;75635;-22
2023/08/07 06:17:01;;;;;;;1.90;1.60;;;;;;;18.92;83.94;97193.05;105903;1256;78425;-22
2023/08/07 06:19:29;;;;;;;1.70;1.60;;;;;;;18.77;84.97;97199.98;105957;1256;76683;-21
2023/08/07 06:21:59;;;;;;;1.40;1.30;;;;;;;18.82;84.48;97206.56;106013;1254;62528;-22
2023/08/07 06:24:28;;;;;;;1.90;1.30;;;;;;;18.94;83.64;97208.08;105901;1256;62464;-22
2023/08/07 06:26:56;;;;;;;2.70;1.50;;;;;;;18.83;83.62;97213.72;105997;1250;73117;-22
2023/08/07 06:29:24;;;;;;;1.90;1.60;;;;;;;18.61;83.58;97207.69;105957;1251;75725;-22
2023/08/07 06:31:52;;;;;;;1.00;0.90;;;;;;;18.32;84.68;97214.27;105841;1250;74196;-22
2023/08/07 06:34:20;;;;;;;1.80;1.00;;;;;;;18.46;84.38;97228.10;105651;1251;64495;-24
2023/08/07 06:36:48;;;;;;;0.90;0.80;;;;;;;18.33;83.38;97227.11;105656;1251;62462;-21
2023/08/07 06:39:15;;;;;;;1.40;1.30;;;;;;;17.98;84.35;97230.44;105607;1251;75514;-21
2023/08/07 06:41:43;;;;;;;0.80;0.80;;;;;;;17.73;85.66;97232.19;105641;1251;75710;-21
2023/08/07 06:44:12;;;;;;;1.90;1.10;;;;;;;17.72;86.15;97234.71;105748;1257;72679;-21
2023/08/07 06:46:40;;;;;;;1.20;1.10;;;;;;;17.85;85.24;97241.61;105658;1251;61167;-25
2023/08/07 06:49:08;;;;;;;1.20;1.10;;;;;;;17.80;85.34;97244.05;105624;1251;62737;-23
2023/08/07 06:51:35;;;;;;;0.70;0.70;;;;;;;17.62;86.34;97240.86;105541;1254;76914;-22
2023/08/07 06:54:04;;;;;;;0.70;0.70;;;;;;;17.53;87.02;97246.44;105663;1257;76348;-22
2023/08/07 06:56:31;;;;;;;2.40;1.00;;;;;;;17.64;86.03;97251.21;105610;1251;72347;-23
2023/08/07 06:58:59;;;;;;;1.20;0.80;;;;;;;17.61;85.86;97263.95;105697;1253;61016;-23
2023/08/07 07:01:27;;;;;;;1.60;0.90;;;;;;;17.36;86.15;97258.94;105664;1253;61167;-32
2023/08/07 07:03:55;;;;;;;0.90;0.60;;;;;;;17.25;86.88;97258.05;105718;1254;75709;-23
2023/08/07 07:06:25;;;;;;;0.60;0.60;;;;;;;17.47;86.07;97254.98;105681;1257;76901;-23
2023/08/07 07:08:54;;;;;;;3.90;0.90;;;;;;;17.56;85.44;97264.27;105709;1253;74140;-24
2023/08/07 07:11:24;;;;;;;4.00;0.80;;;;;;;17.38;85.33;97266.50;105519;1253;64093;-24
2023/08/07 07:13:52;;;;;;;1.30;1.10;;;;;;;17.07;85.91;97270.01;105635;1253;64247;-22
2023/08/07 07:16:21;;;;;;;0.90;0.60;;;;;;;17.12;86.09;97274.66;105644;1253;75481;-22
2023/08/07 07:18:55;;;;;;;1.10;0.60;;;;;;;17.23;84.21;97276.67;105648;1253;78361;-22
2023/08/07 07:21:23;;;;;;;0.70;0.70;;;;;;;17.31;84.17;97298.40;105497;1261;73782;-22
2023/08/07 07:23:51;;;;;;;1.00;0.70;;;;;;;17.20;84.61;97295.38;105586;1253;61501;-24
2023/08/07 07:26:19;;;;;;;1.20;1.10;;;;;;;17.14;85.25;97302.61;105548;1254;61081;-23
2023/08/07 07:28:48;;;;;;;4.00;1.00;;;;;;;17.49;83.60;97310.92;105808;1257;75476;-22
2023/08/07 07:31:15;;;;;;;1.70;1.00;;;;;;;17.49;82.76;97310.91;105645;1253;73242;-23
2023/08/07 07:33:43;;;;;;;1.90;1.30;;;;;;;17.37;83.10;97309.86;105622;1253;72704;-23
2023/08/07 07:36:21;;;;;;;1.90;0.80;;;;;;;17.14;84.02;97320.54;105622;1253;61101;-22
2023/08/07 07:38:49;;;;;;;3.10;1.20;;;;;;;17.26;83.24;97321.36;105524;1255;62866;-22
2023/08/07 07:41:17;;;;;;;2.40;1.30;;;;;;;17.49;82.02;97325.13;105485;1254;75529;-23
2023/08/07 07:43:46;;;;;;;1.90;1.10;;;;;;;17.54;81.65;97332.30;105661;1253;76416;-23
2023/08/07 07:46:14;;;;;;;1.10;0.80;;;;;;;17.39;81.98;97327.48;105636;1261;74874;-23
2023/08/07 07:48:42;;;;;;;1.30;0.70;;;;;;;17.04;82.51;97314.88;105647;1254;62044;-22
2023/08/07 07:51:10;;;;;;;2.10;1.00;;;;;;;17.23;81.93;97321.66;105653;1253;62759;-23
2023/08/07 07:53:38;;;;;;;0.80;0.70;;;;;;;17.41;81.33;97322.05;105616;1252;77198;-23
2023/08/07 07:56:06;;;;;;;1.20;0.90;;;;;;;17.33;81.44;97322.71;105720;1253;76543;-22
2023/08/07 07:58:34;;;;;;;1.60;0.90;;;;;;;17.15;82.09;97328.27;105604;1258;75519;-22
2023/08/07 08:01:02;;;;;;;1.80;0.70;;;;;;;16.99;82.56;97330.94;105639;1253;63773;-23
2023/08/07 08:03:30;;;;;;;2.00;0.70;;;;;;;17.26;81.77;97326.05;105672;1259;63858;-23
2023/08/07 08:05:58;;;;;;;0.70;0.60;;;;;;;17.29;81.15;97326.20;105705;1251;75878;-23
2023/08/07 08:08:26;;;;;;;2.10;0.90;;;;;;;17.11;82.28;97328.96;105711;1255;74959;-23
2023/08/07 08:10:55;;;;;;;0.70;0.60;;;;;;;16.98;83.42;97329.57;105728;1257;75171;-23
2023/08/07 08:13:25;;;;;;;0.70;0.60;;;;;;;17.01;84.36;97331.01;105657;1251;61113;-23
2023/08/07 08:15:53;;;;;;;0.80;0.70;;;;;;;17.25;83.26;97338.93;105730;1256;62143;-23
2023/08/07 08:18:21;;;;;;;1.00;0.70;;;;;;;17.18;83.32;97339.65;105575;1257;76377;-24
2023/08/07 08:20:49;;;;;;;0.80;0.70;;;;;;;16.96;84.67;97335.05;105679;1253;76896;-23
2023/08/07 08:23:16;;;;;;;0.60;0.50;;;;;;;16.82;86.17;97335.88;105702;1257;72695;-23
2023/08/07 08:25:44;;;;;;;0.70;0.60;;;;;;;17.07;85.85;97338.65;105681;1253;63941;-23
2023/08/07 08:28:12;;;;;;;0.60;0.60;;;;;;;17.27;84.85;97345.79;105647;1251;63945;-23
2023/08/07 08:30:41;;;;;;;0.70;0.70;;;;;;;17.11;85.73;97360.45;105601;1251;75889;-22
2023/08/07 08:33:12;;;;;;;0.60;0.60;;;;;;;16.84;86.82;97368.74;105662;1253;74454;-22
2023/08/07 08:35:40;;;;;;;0.50;0.50;;;;;;;16.80;87.36;97380.92;105722;1251;74096;-22
2023/08/07 08:38:08;;;;;;;1.80;0.60;;;;;;;17.19;85.60;97394.36;105692;1253;62264;-22
2023/08/07 08:40:37;;;;;;;0.60;0.50;;;;;;;17.35;85.15;97400.64;105737;1257;62638;-23
2023/08/07 08:50:43;;;;;;;0.70;0.50;;;;;;;17.59;86.01;97374.98;102583;1296;600120;-23
2023/08/07 08:53:11;;;;;;;0.70;0.70;;;;;;;17.69;85.48;97377.10;104793;1272;61420;-22
2023/08/07 08:55:42;;;;;;;1.10;0.50;;;;;;;17.68;85.68;97383.75;104865;1266;61159;-22
2023/08/07 08:58:10;;;;;;;0.40;0.40;;;;;;;17.56;85.74;97389.53;105272;1267;75433;-22
2023/08/07 09:00:38;;;;;;;1.70;0.50;;;;;;;17.90;84.42;97392.77;105218;1261;75725;-23
2023/08/07 09:03:06;;;;;;;0.50;0.50;;;;;;;17.79;82.01;97388.34;105251;1260;74062;-23
2023/08/07 09:05:34;;;;;;;0.30;0.30;;;;;;;17.58;83.09;97396.61;103202;1264;61201;-23
2023/08/07 09:08:02;;;;;;;0.70;0.70;;;;;;;17.39;83.87;97393.42;105520;1263;61176;-23
2023/08/07 09:10:30;;;;;;;0.40;0.40;;;;;;;17.35;84.81;97391.13;105470;1257;61177;-23
2023/08/07 09:13:06;;;;;;;0.30;0.30;;;;;;;17.58;83.45;97377.25;105489;1257;74417;-23
2023/08/07 09:15:34;;;;;;;0.40;0.40;;;;;;;17.72;82.44;97384.66;105528;1263;75589;-22
2023/08/07 09:18:03;;;;;;;0.50;0.50;;;;;;;17.52;83.05;97381.69;105560;1257;62585;-24
2023/08/07 09:28:13;;;;;;;0.30;0.30;;;;;;;17.60;82.81;97398.66;102662;1295;600276;-22
2023/08/07 09:30:42;;;;;;;0.50;0.50;;;;;;;17.39;84.31;97410.18;105052;1269;62579;-22
2023/08/07 09:33:10;;;;;;;0.50;0.30;;;;;;;17.20;84.23;97407.30;104810;1267;61065;-23
2023/08/07 09:35:38;;;;;;;0.60;0.50;;;;;;;17.53;83.91;97425.94;104836;1271;76114;-23
2023/08/07 09:38:06;;;;;;;0.30;0.30;;;;;;;17.69;81.51;97432.90;104772;1267;76828;-23
2023/08/07 09:40:34;;;;;;;0.30;0.30;;;;;;;17.55;81.39;97453.06;104712;1275;76561;-22
2023/08/07 09:43:03;;;;;;;0.40;0.30;;;;;;;17.36;82.11;97468.02;103111;1270;2734567;-22
2023/08/07 09:45:31;;;;;;;0.40;0.40;;;;;;;17.49;83.19;97480.73;104826;1270;61118;-23
2023/08/07 09:48:04;;;;;;;0.40;0.30;;;;;;;17.96;80.24;97485.59;104841;1270;76114;-22
2023/08/07 09:50:32;;;;;;;0.90;0.40;;;;;;;18.11;78.71;97485.15;104557;1264;76772;-22
2023/08/07 09:53:00;;;;;;;0.30;0.30;;;;;;;18.01;77.79;97481.73;104891;1269;74126;-22
2023/08/07 09:55:27;;;;;;;0.30;0.30;;;;;;;17.81;78.05;97492.01;104909;1269;61176;-22
2023/08/07 09:57:55;;;;;;;0.30;0.30;;;;;;;17.53;77.76;97482.77;104897;1270;61169;-22
2023/08/07 10:00:23;;;;;;;0.20;0.20;;;;;;;17.34;79.34;97480.79;105127;1269;76906;-24
2023/08/07 10:02:51;;;;;;;0.30;0.30;;;;;;;17.58;77.44;97478.55;105146;1269;76845;-22
2023/08/07 10:05:19;;;;;;;3.50;0.40;;;;;;;17.51;76.85;97471.69;105131;1268;72712;-23
2023/08/07 10:07:47;;;;;;;0.60;0.40;;;;;;;17.35;77.51;97483.73;104837;1272;62526;-23
2023/08/07 10:10:15;;;;;;;0.60;0.40;;;;;;;17.04;78.86;97483.48;104902;1265;61035;-23
2023/08/07 10:12:45;;;;;;;0.30;0.30;;;;;;;16.86;79.91;97494.46;105135;1268;73050;-23
2023/08/07 10:15:15;;;;;;;0.30;0.30;;;;;;;16.99;79.83;97504.50;104723;1272;75543;-23
2023/08/07 10:17:43;;;;;;;1.70;0.40;;;;;;;17.40;78.42;97513.83;104980;1267;72928;-23
2023/08/07 10:20:12;;;;;;;0.30;0.30;;;;;;;17.62;78.21;97517.52;105231;1261;61100;-23
2023/08/07 10:22:40;;;;;;;0.20;0.20;;;;;;;17.84;77.68;97521.28;105234;1263;61213;-22
2023/08/07 10:25:08;;;;;;;0.50;0.50;;;;;;;18.12;79.15;97534.38;104937;1266;71997;-22
2023/08/07 10:27:37;;;;;;;0.30;0.30;;;;;;;18.16;75.60;97525.40;104939;1269;74444;-22
2023/08/07 10:30:07;;;;;;;0.40;0.40;;;;;;;18.31;73.57;97529.17;104808;1269;71527;-22
2023/08/07 10:32:34;;;;;;;0.30;0.30;;;;;;;18.27;72.10;97517.65;104932;1267;61206;-23
2023/08/07 10:35:04;;;;;;;0.80;0.40;;;;;;;18.05;72.39;97536.12;105135;1269;61770;-22
2023/08/07 10:37:43;;;;;;;0.80;0.50;;;;;;;17.77;72.63;97529.00;105199;1261;73074;-22
2023/08/07 10:48:09;;;;;;;1.40;0.90;;;;;;;17.58;72.19;97551.42;103335;1286;600163;-22
2023/08/07 10:57:40;;;;;;;0.70;0.60;;;;;;;17.98;71.37;97569.35;102662;1289;600046;-21
2023/08/07 11:00:09;;;;;;;1.00;0.80;;;;;;;17.74;71.89;97564.16;104918;1267;61274;-21
2023/08/07 11:02:39;;;;;;;0.70;0.60;;;;;;;17.31;73.28;97570.79;105313;1263;61751;-21
2023/08/07 11:05:07;;;;;;;3.50;0.80;;;;;;;17.17;74.23;97583.16;105547;1258;72182;-21
2023/08/07 11:07:35;;;;;;;1.80;0.50;;;;;;;17.58;72.97;97583.36;105216;1263;74451;-21
2023/08/07 11:10:02;;;;;;;0.60;0.50;;;;;;;17.75;72.04;97589.88;105147;1258;71611;-21
2023/08/07 11:12:30;;;;;;;0.90;0.70;;;;;;;17.52;71.97;97583.63;103358;1254;61224;-22
2023/08/07 11:14:58;;;;;;;1.30;0.60;;;;;;;17.33;72.68;97595.71;105143;1263;61175;-22
2023/08/07 11:24:29;;;;;;;0.50;0.50;;;;;;;18.11;70.08;97597.61;103002;1289;600349;-21
2023/08/07 11:26:58;;;;;;;0.50;0.50;;;;;;;18.66;67.87;97594.55;104829;1267;61166;-21
2023/08/07 11:29:30;;;;;;;0.80;0.60;;;;;;;18.93;66.24;97595.63;104761;1268;61189;-22
2023/08/07 11:31:58;;;;;;;0.50;0.50;;;;;;;19.20;66.18;97598.48;105101;1269;72174;-21
2023/08/07 11:34:26;;;;;;;2.20;0.60;;;;;;;19.12;65.30;97599.55;104807;1267;74296;-21
2023/08/07 11:36:57;;;;;;;0.60;0.50;;;;;;;18.87;65.81;97591.89;104925;1265;2844889;-22
2023/08/07 11:39:26;;;;;;;0.90;0.60;;;;;;;18.57;67.07;97604.89;105578;1263;61685;-22
2023/08/07 11:41:54;;;;;;;0.60;0.50;;;;;;;18.52;68.23;97611.64;105581;1256;61234;-22
2023/08/07 11:44:22;;;;;;;0.70;0.60;;;;;;;18.39;68.65;97610.77;105625;1258;61042;-22
2023/08/07 11:46:51;;;;;;;1.60;0.30;;;;;;;18.33;69.83;97614.85;105588;1264;72199;-23
2023/08/07 11:49:19;;;;;;;0.50;0.40;;;;;;;18.64;68.82;97618.48;105441;1262;73216;-22
2023/08/07 11:51:47;;;;;;;1.20;0.60;;;;;;;18.88;67.87;97617.20;105424;1273;72673;-22
2023/08/07 11:54:15;;;;;;;0.30;0.30;;;;;;;18.84;66.79;97617.80;105534;1262;61116;-24
2023/08/07 11:56:43;;;;;;;0.50;0.50;;;;;;;18.68;67.58;97626.17;105657;1258;61069;-23
2023/08/07 11:59:11;;;;;;;1.30;0.60;;;;;;;18.61;67.67;97630.67;105544;1270;73421;-23
2023/08/07 12:01:40;;;;;;;2.90;1.10;;;;;;;18.68;68.10;97634.98;105728;1254;75123;-23
2023/08/07 12:04:11;;;;;;;2.40;0.70;;;;;;;18.84;68.46;97644.27;105753;1254;71818;-23
2023/08/07 12:06:52;;;;;;;1.00;0.50;;;;;;;19.14;68.07;97644.88;105780;1256;61061;-23
2023/08/07 12:09:19;;;;;;;2.10;0.70;;;;;;;19.25;66.40;97644.23;105685;1260;61178;-23
2023/08/07 12:18:18;;;;;;;0.90;0.70;;;;;;;19.12;67.42;97661.45;102654;1290;600440;-23
2023/08/07 12:20:46;;;;;;;1.10;0.60;;;;;;;19.10;65.48;97655.81;104862;1267;61148;-23
2023/08/07 12:30:52;;;;;;;3.40;0.70;;;;;;;18.36;67.57;97663.61;102978;1289;600008;-22
2023/08/07 12:33:20;;;;;;;2.10;0.70;;;;;;;18.25;66.73;97659.92;104804;1267;61168;-22
2023/08/07 12:43:29;;;;;;;2.80;0.60;;;;;;;18.67;68.35;97667.18;102696;1295;600485;-23
2023/08/07 12:53:37;;;;;;;1.40;0.90;;;;;;;18.90;67.02;97695.01;102623;1292;600108;-22